sensor_id;sensor_type;location;lat;lon;timestamp;P1;durP1;ratioP1;P2;durP2;ratioP2
49824;SDS011;35714;55.708;37.478;2023-05-07T00:01:53;6.90;;;2.58;;
49824;SDS011;35714;55.708;37.478;2023-05-07T00:04:19;6.25;;;2.28;;
49824;SDS011;35714;55.708;37.478;2023-05-07T00:06:45;5.38;;;2.45;;
49824;SDS011;35714;55.708;37.478;2023-05-07T00:09:11;5.95;;;2.60;;
49824;SDS011;35714;55.708;37.478;2023-05-07T00:11:37;4.90;;;2.30;;
49824;SDS011;35714;55.708;37.478;2023-05-07T00:14:03;5.50;;;2.70;;
49824;SDS011;35714;55.708;37.478;2023-05-07T00:16:29;4.93;;;2.72;;
49824;SDS011;35714;55.708;37.478;2023-05-07T00:18:54;5.22;;;2.60;;
49824;SDS011;35714;55.708;37.478;2023-05-07T00:21:20;5.15;;;2.53;;
49824;SDS011;35714;55.708;37.478;2023-05-07T00:23:46;4.90;;;2.42;;
49824;SDS011;35714;55.708;37.478;2023-05-07T00:26:12;5.05;;;2.10;;
49824;SDS011;35714;55.708;37.478;2023-05-07T00:28:39;4.60;;;2.05;;
49824;SDS011;35714;55.708;37.478;2023-05-07T00:31:06;6.90;;;2.70;;
49824;SDS011;35714;55.708;37.478;2023-05-07T00:33:31;5.63;;;2.00;;
49824;SDS011;35714;55.708;37.478;2023-05-07T00:35:57;6.25;;;2.33;;
49824;SDS011;35714;55.708;37.478;2023-05-07T00:38:23;6.20;;;2.50;;
49824;SDS011;35714;55.708;37.478;2023-05-07T00:40:48;10.30;;;2.58;;
49824;SDS011;35714;55.708;37.478;2023-05-07T00:43:14;5.25;;;2.50;;
49824;SDS011;35714;55.708;37.478;2023-05-07T00:45:40;4.75;;;2.13;;
49824;SDS011;35714;55.708;37.478;2023-05-07T00:48:05;4.85;;;2.33;;
49824;SDS011;35714;55.708;37.478;2023-05-07T00:50:31;4.95;;;2.28;;
49824;SDS011;35714;55.708;37.478;2023-05-07T00:52:58;4.28;;;2.08;;
49824;SDS011;35714;55.708;37.478;2023-05-07T00:55:24;5.72;;;2.70;;
49824;SDS011;35714;55.708;37.478;2023-05-07T00:57:51;5.32;;;2.20;;
49824;SDS011;35714;55.708;37.478;2023-05-07T01:00:17;11.63;;;2.53;;
49824;SDS011;35714;55.708;37.478;2023-05-07T01:02:44;8.95;;;2.42;;
49824;SDS011;35714;55.708;37.478;2023-05-07T01:05:10;10.07;;;2.50;;
49824;SDS011;35714;55.708;37.478;2023-05-07T01:07:38;10.65;;;4.32;;
49824;SDS011;35714;55.708;37.478;2023-05-07T01:10:06;7.65;;;3.20;;
49824;SDS011;35714;55.708;37.478;2023-05-07T01:12:33;3.92;;;1.98;;
49824;SDS011;35714;55.708;37.478;2023-05-07T01:15:00;3.90;;;2.00;;
49824;SDS011;35714;55.708;37.478;2023-05-07T01:17:27;5.18;;;1.90;;
49824;SDS011;35714;55.708;37.478;2023-05-07T01:19:53;7.13;;;2.15;;
49824;SDS011;35714;55.708;37.478;2023-05-07T01:22:39;5.00;;;2.45;;
49824;SDS011;35714;55.708;37.478;2023-05-07T01:25:07;5.35;;;2.13;;
49824;SDS011;35714;55.708;37.478;2023-05-07T01:27:36;8.52;;;2.67;;
49824;SDS011;35714;55.708;37.478;2023-05-07T01:30:03;4.93;;;2.38;;
49824;SDS011;35714;55.708;37.478;2023-05-07T01:32:33;6.97;;;2.42;;
49824;SDS011;35714;55.708;37.478;2023-05-07T01:35:06;6.22;;;2.55;;
49824;SDS011;35714;55.708;37.478;2023-05-07T01:37:35;5.88;;;2.70;;
49824;SDS011;35714;55.708;37.478;2023-05-07T01:40:01;5.28;;;2.50;;
49824;SDS011;35714;55.708;37.478;2023-05-07T01:42:29;5.40;;;2.60;;
49824;SDS011;35714;55.708;37.478;2023-05-07T01:44:55;7.15;;;3.13;;
49824;SDS011;35714;55.708;37.478;2023-05-07T01:47:21;5.25;;;2.78;;
49824;SDS011;35714;55.708;37.478;2023-05-07T01:49:48;5.35;;;2.35;;
49824;SDS011;35714;55.708;37.478;2023-05-07T01:52:14;5.00;;;2.80;;
49824;SDS011;35714;55.708;37.478;2023-05-07T01:54:39;9.32;;;2.72;;
49824;SDS011;35714;55.708;37.478;2023-05-07T01:57:05;4.93;;;2.50;;
49824;SDS011;35714;55.708;37.478;2023-05-07T01:59:31;5.47;;;2.67;;
49824;SDS011;35714;55.708;37.478;2023-05-07T02:01:56;4.68;;;2.13;;
49824;SDS011;35714;55.708;37.478;2023-05-07T02:04:22;4.80;;;2.47;;
49824;SDS011;35714;55.708;37.478;2023-05-07T02:06:49;5.32;;;2.58;;
49824;SDS011;35714;55.708;37.478;2023-05-07T02:09:16;8.77;;;2.60;;
49824;SDS011;35714;55.708;37.478;2023-05-07T02:11:44;5.47;;;2.67;;
49824;SDS011;35714;55.708;37.478;2023-05-07T02:14:10;5.45;;;2.30;;
49824;SDS011;35714;55.708;37.478;2023-05-07T02:16:36;6.47;;;2.78;;
49824;SDS011;35714;55.708;37.478;2023-05-07T02:19:02;5.32;;;2.53;;
49824;SDS011;35714;55.708;37.478;2023-05-07T02:21:28;5.45;;;2.90;;
49824;SDS011;35714;55.708;37.478;2023-05-07T02:23:53;5.30;;;2.75;;
49824;SDS011;35714;55.708;37.478;2023-05-07T02:26:19;4.40;;;2.40;;
49824;SDS011;35714;55.708;37.478;2023-05-07T02:28:47;5.50;;;2.67;;
49824;SDS011;35714;55.708;37.478;2023-05-07T02:31:13;7.10;;;2.60;;
49824;SDS011;35714;55.708;37.478;2023-05-07T02:33:39;6.40;;;3.10;;
49824;SDS011;35714;55.708;37.478;2023-05-07T02:36:08;5.20;;;2.47;;
49824;SDS011;35714;55.708;37.478;2023-05-07T02:38:40;4.20;;;2.30;;
49824;SDS011;35714;55.708;37.478;2023-05-07T02:41:06;4.40;;;2.15;;
49824;SDS011;35714;55.708;37.478;2023-05-07T02:43:32;7.28;;;2.58;;
49824;SDS011;35714;55.708;37.478;2023-05-07T02:46:01;6.68;;;2.50;;
49824;SDS011;35714;55.708;37.478;2023-05-07T02:48:32;4.60;;;1.80;;
49824;SDS011;35714;55.708;37.478;2023-05-07T02:50:59;5.22;;;2.17;;
49824;SDS011;35714;55.708;37.478;2023-05-07T02:53:25;5.22;;;2.30;;
49824;SDS011;35714;55.708;37.478;2023-05-07T02:56:00;6.03;;;2.08;;
49824;SDS011;35714;55.708;37.478;2023-05-07T02:58:27;5.43;;;2.80;;
49824;SDS011;35714;55.708;37.478;2023-05-07T03:00:53;5.13;;;2.20;;
49824;SDS011;35714;55.708;37.478;2023-05-07T03:03:31;4.60;;;2.10;;
49824;SDS011;35714;55.708;37.478;2023-05-07T03:05:57;7.93;;;2.85;;
49824;SDS011;35714;55.708;37.478;2023-05-07T03:08:23;7.85;;;2.83;;
49824;SDS011;35714;55.708;37.478;2023-05-07T03:10:49;5.13;;;2.58;;
49824;SDS011;35714;55.708;37.478;2023-05-07T03:13:15;6.32;;;2.60;;
49824;SDS011;35714;55.708;37.478;2023-05-07T03:15:41;5.95;;;2.72;;
49824;SDS011;35714;55.708;37.478;2023-05-07T03:18:07;5.78;;;2.20;;
49824;SDS011;35714;55.708;37.478;2023-05-07T03:20:33;5.15;;;2.47;;
49824;SDS011;35714;55.708;37.478;2023-05-07T03:22:59;5.15;;;2.10;;
49824;SDS011;35714;55.708;37.478;2023-05-07T03:25:25;4.93;;;1.90;;
49824;SDS011;35714;55.708;37.478;2023-05-07T03:27:51;5.43;;;2.10;;
49824;SDS011;35714;55.708;37.478;2023-05-07T03:30:20;4.80;;;2.17;;
49824;SDS011;35714;55.708;37.478;2023-05-07T03:32:46;4.30;;;1.95;;
49824;SDS011;35714;55.708;37.478;2023-05-07T03:35:11;4.55;;;1.92;;
49824;SDS011;35714;55.708;37.478;2023-05-07T03:37:39;4.80;;;2.15;;
49824;SDS011;35714;55.708;37.478;2023-05-07T03:40:05;3.75;;;1.77;;
49824;SDS011;35714;55.708;37.478;2023-05-07T03:42:40;4.75;;;2.13;;
49824;SDS011;35714;55.708;37.478;2023-05-07T03:45:07;3.83;;;1.70;;
49824;SDS011;35714;55.708;37.478;2023-05-07T03:47:33;5.03;;;1.95;;
49824;SDS011;35714;55.708;37.478;2023-05-07T03:49:59;4.28;;;2.00;;
49824;SDS011;35714;55.708;37.478;2023-05-07T03:52:25;3.63;;;1.77;;
49824;SDS011;35714;55.708;37.478;2023-05-07T03:54:52;4.05;;;1.77;;
49824;SDS011;35714;55.708;37.478;2023-05-07T03:57:19;5.93;;;1.90;;
49824;SDS011;35714;55.708;37.478;2023-05-07T03:59:46;4.65;;;2.30;;
49824;SDS011;35714;55.708;37.478;2023-05-07T04:02:12;4.22;;;2.00;;
49824;SDS011;35714;55.708;37.478;2023-05-07T04:04:38;6.72;;;2.03;;
49824;SDS011;35714;55.708;37.478;2023-05-07T04:07:04;5.80;;;2.30;;
49824;SDS011;35714;55.708;37.478;2023-05-07T04:09:35;3.80;;;1.85;;
49824;SDS011;35714;55.708;37.478;2023-05-07T04:12:01;4.50;;;1.80;;
49824;SDS011;35714;55.708;37.478;2023-05-07T04:14:27;5.32;;;1.70;;
49824;SDS011;35714;55.708;37.478;2023-05-07T04:16:53;4.13;;;1.60;;
49824;SDS011;35714;55.708;37.478;2023-05-07T04:19:18;5.63;;;1.48;;
49824;SDS011;35714;55.708;37.478;2023-05-07T04:21:46;4.60;;;2.20;;
49824;SDS011;35714;55.708;37.478;2023-05-07T04:24:11;3.72;;;1.98;;
49824;SDS011;35714;55.708;37.478;2023-05-07T04:26:37;5.45;;;2.78;;
49824;SDS011;35714;55.708;37.478;2023-05-07T04:29:03;5.03;;;2.03;;
49824;SDS011;35714;55.708;37.478;2023-05-07T04:31:32;4.70;;;2.15;;
49824;SDS011;35714;55.708;37.478;2023-05-07T04:33:58;6.47;;;2.45;;
49824;SDS011;35714;55.708;37.478;2023-05-07T04:36:24;3.97;;;2.08;;
49824;SDS011;35714;55.708;37.478;2023-05-07T04:38:57;3.70;;;1.85;;
49824;SDS011;35714;55.708;37.478;2023-05-07T04:41:23;5.65;;;2.25;;
49824;SDS011;35714;55.708;37.478;2023-05-07T04:43:49;7.47;;;2.38;;
49824;SDS011;35714;55.708;37.478;2023-05-07T04:46:16;4.78;;;2.15;;
49824;SDS011;35714;55.708;37.478;2023-05-07T04:48:42;4.45;;;1.80;;
49824;SDS011;35714;55.708;37.478;2023-05-07T04:51:08;4.80;;;1.90;;
49824;SDS011;35714;55.708;37.478;2023-05-07T04:53:33;4.10;;;1.63;;
49824;SDS011;35714;55.708;37.478;2023-05-07T04:55:59;3.38;;;1.40;;
49824;SDS011;35714;55.708;37.478;2023-05-07T04:58:31;3.50;;;1.40;;
49824;SDS011;35714;55.708;37.478;2023-05-07T05:00:58;3.03;;;1.15;;
49824;SDS011;35714;55.708;37.478;2023-05-07T05:03:24;3.28;;;1.27;;
49824;SDS011;35714;55.708;37.478;2023-05-07T05:05:50;2.85;;;1.17;;
49824;SDS011;35714;55.708;37.478;2023-05-07T05:08:17;3.88;;;1.40;;
49824;SDS011;35714;55.708;37.478;2023-05-07T05:10:43;2.50;;;1.20;;
49824;SDS011;35714;55.708;37.478;2023-05-07T05:13:10;3.15;;;1.13;;
49824;SDS011;35714;55.708;37.478;2023-05-07T05:15:38;4.30;;;1.25;;
49824;SDS011;35714;55.708;37.478;2023-05-07T05:18:04;3.20;;;1.20;;
49824;SDS011;35714;55.708;37.478;2023-05-07T05:20:30;4.05;;;1.52;;
49824;SDS011;35714;55.708;37.478;2023-05-07T05:22:56;3.13;;;1.42;;
49824;SDS011;35714;55.708;37.478;2023-05-07T05:25:21;2.00;;;0.82;;
49824;SDS011;35714;55.708;37.478;2023-05-07T05:27:47;4.07;;;1.45;;
49824;SDS011;35714;55.708;37.478;2023-05-07T05:30:13;3.22;;;1.50;;
49824;SDS011;35714;55.708;37.478;2023-05-07T05:32:41;3.42;;;1.13;;
49824;SDS011;35714;55.708;37.478;2023-05-07T05:35:06;2.85;;;0.80;;
49824;SDS011;35714;55.708;37.478;2023-05-07T05:37:32;2.92;;;1.00;;
49824;SDS011;35714;55.708;37.478;2023-05-07T05:40:01;2.67;;;1.10;;
49824;SDS011;35714;55.708;37.478;2023-05-07T05:42:31;2.90;;;1.02;;
49824;SDS011;35714;55.708;37.478;2023-05-07T05:44:57;3.15;;;1.10;;
49824;SDS011;35714;55.708;37.478;2023-05-07T05:47:23;2.30;;;1.10;;
49824;SDS011;35714;55.708;37.478;2023-05-07T05:49:50;1.98;;;0.70;;
49824;SDS011;35714;55.708;37.478;2023-05-07T05:52:17;2.63;;;1.10;;
49824;SDS011;35714;55.708;37.478;2023-05-07T05:54:43;3.90;;;1.20;;
49824;SDS011;35714;55.708;37.478;2023-05-07T05:57:09;3.03;;;1.15;;
49824;SDS011;35714;55.708;37.478;2023-05-07T05:59:35;2.17;;;0.82;;
49824;SDS011;35714;55.708;37.478;2023-05-07T06:02:01;2.60;;;1.08;;
49824;SDS011;35714;55.708;37.478;2023-05-07T06:04:28;2.38;;;0.80;;
49824;SDS011;35714;55.708;37.478;2023-05-07T06:06:55;2.05;;;0.60;;
49824;SDS011;35714;55.708;37.478;2023-05-07T06:09:23;2.80;;;0.98;;
49824;SDS011;35714;55.708;37.478;2023-05-07T06:11:49;3.08;;;1.33;;
49824;SDS011;35714;55.708;37.478;2023-05-07T06:14:16;4.70;;;1.92;;
49824;SDS011;35714;55.708;37.478;2023-05-07T06:16:42;2.95;;;1.00;;
49824;SDS011;35714;55.708;37.478;2023-05-07T06:19:08;2.92;;;0.75;;
49824;SDS011;35714;55.708;37.478;2023-05-07T06:21:34;3.45;;;1.10;;
49824;SDS011;35714;55.708;37.478;2023-05-07T06:24:00;3.00;;;0.90;;
49824;SDS011;35714;55.708;37.478;2023-05-07T06:26:26;1.52;;;0.60;;
49824;SDS011;35714;55.708;37.478;2023-05-07T06:28:52;1.75;;;0.57;;
49824;SDS011;35714;55.708;37.478;2023-05-07T06:31:18;4.28;;;0.80;;
49824;SDS011;35714;55.708;37.478;2023-05-07T06:33:53;3.05;;;0.95;;
49824;SDS011;35714;55.708;37.478;2023-05-07T06:36:21;3.58;;;1.05;;
49824;SDS011;35714;55.708;37.478;2023-05-07T06:38:46;2.90;;;0.77;;
49824;SDS011;35714;55.708;37.478;2023-05-07T06:41:12;3.08;;;1.20;;
49824;SDS011;35714;55.708;37.478;2023-05-07T06:43:38;2.33;;;0.90;;
49824;SDS011;35714;55.708;37.478;2023-05-07T06:46:22;3.17;;;1.00;;
49824;SDS011;35714;55.708;37.478;2023-05-07T06:48:48;3.42;;;0.88;;
49824;SDS011;35714;55.708;37.478;2023-05-07T06:51:14;2.45;;;1.15;;
49824;SDS011;35714;55.708;37.478;2023-05-07T06:53:40;2.20;;;0.88;;
49824;SDS011;35714;55.708;37.478;2023-05-07T06:56:09;3.30;;;0.70;;
49824;SDS011;35714;55.708;37.478;2023-05-07T06:58:37;2.55;;;0.90;;
49824;SDS011;35714;55.708;37.478;2023-05-07T07:01:03;2.00;;;0.80;;
49824;SDS011;35714;55.708;37.478;2023-05-07T07:03:30;2.10;;;0.90;;
49824;SDS011;35714;55.708;37.478;2023-05-07T07:05:55;2.95;;;0.95;;
49824;SDS011;35714;55.708;37.478;2023-05-07T07:08:22;1.60;;;0.75;;
49824;SDS011;35714;55.708;37.478;2023-05-07T07:10:49;2.72;;;0.93;;
49824;SDS011;35714;55.708;37.478;2023-05-07T07:13:15;2.20;;;0.70;;
49824;SDS011;35714;55.708;37.478;2023-05-07T07:15:40;2.30;;;0.75;;
49824;SDS011;35714;55.708;37.478;2023-05-07T07:18:06;2.92;;;0.80;;
49824;SDS011;35714;55.708;37.478;2023-05-07T07:20:32;2.20;;;0.80;;
49824;SDS011;35714;55.708;37.478;2023-05-07T07:22:58;2.35;;;0.70;;
49824;SDS011;35714;55.708;37.478;2023-05-07T07:25:25;2.22;;;0.80;;
49824;SDS011;35714;55.708;37.478;2023-05-07T07:27:51;5.65;;;1.42;;
49824;SDS011;35714;55.708;37.478;2023-05-07T07:30:17;10.02;;;0.80;;
49824;SDS011;35714;55.708;37.478;2023-05-07T07:32:46;1.73;;;0.50;;
49824;SDS011;35714;55.708;37.478;2023-05-07T07:35:12;3.45;;;0.93;;
49824;SDS011;35714;55.708;37.478;2023-05-07T07:37:38;2.47;;;0.60;;
49824;SDS011;35714;55.708;37.478;2023-05-07T07:40:04;2.20;;;0.60;;
49824;SDS011;35714;55.708;37.478;2023-05-07T07:42:32;3.33;;;0.80;;
49824;SDS011;35714;55.708;37.478;2023-05-07T07:44:57;2.13;;;0.98;;
49824;SDS011;35714;55.708;37.478;2023-05-07T07:47:25;5.50;;;1.30;;
49824;SDS011;35714;55.708;37.478;2023-05-07T07:49:52;1.90;;;0.70;;
49824;SDS011;35714;55.708;37.478;2023-05-07T07:52:18;1.90;;;0.70;;
49824;SDS011;35714;55.708;37.478;2023-05-07T07:54:45;2.40;;;0.95;;
49824;SDS011;35714;55.708;37.478;2023-05-07T07:57:11;3.58;;;1.10;;
49824;SDS011;35714;55.708;37.478;2023-05-07T07:59:36;2.85;;;0.85;;
49824;SDS011;35714;55.708;37.478;2023-05-07T08:02:03;2.53;;;0.90;;
49824;SDS011;35714;55.708;37.478;2023-05-07T08:04:29;2.13;;;0.80;;
49824;SDS011;35714;55.708;37.478;2023-05-07T08:07:00;2.75;;;0.88;;
49824;SDS011;35714;55.708;37.478;2023-05-07T08:09:26;1.48;;;0.50;;
49824;SDS011;35714;55.708;37.478;2023-05-07T08:11:53;4.28;;;0.80;;
49824;SDS011;35714;55.708;37.478;2023-05-07T08:14:19;1.90;;;0.90;;
49824;SDS011;35714;55.708;37.478;2023-05-07T08:16:46;2.15;;;0.80;;
49824;SDS011;35714;55.708;37.478;2023-05-07T08:19:12;1.80;;;1.00;;
49824;SDS011;35714;55.708;37.478;2023-05-07T08:21:39;3.17;;;0.90;;
49824;SDS011;35714;55.708;37.478;2023-05-07T08:24:05;4.82;;;0.70;;
49824;SDS011;35714;55.708;37.478;2023-05-07T08:26:31;2.05;;;0.50;;
49824;SDS011;35714;55.708;37.478;2023-05-07T08:28:57;1.63;;;0.60;;
49824;SDS011;35714;55.708;37.478;2023-05-07T08:31:23;1.92;;;0.57;;
49824;SDS011;35714;55.708;37.478;2023-05-07T08:33:49;1.60;;;0.43;;
49824;SDS011;35714;55.708;37.478;2023-05-07T08:36:16;1.80;;;0.60;;
49824;SDS011;35714;55.708;37.478;2023-05-07T08:38:41;1.50;;;0.40;;
49824;SDS011;35714;55.708;37.478;2023-05-07T08:41:09;1.17;;;0.50;;
49824;SDS011;35714;55.708;37.478;2023-05-07T08:43:37;1.33;;;0.65;;
49824;SDS011;35714;55.708;37.478;2023-05-07T08:46:06;1.77;;;0.60;;
49824;SDS011;35714;55.708;37.478;2023-05-07T08:48:36;2.15;;;0.68;;
49824;SDS011;35714;55.708;37.478;2023-05-07T08:51:08;2.15;;;0.52;;
49824;SDS011;35714;55.708;37.478;2023-05-07T08:53:39;1.85;;;0.70;;
49824;SDS011;35714;55.708;37.478;2023-05-07T08:56:08;1.70;;;0.60;;
49824;SDS011;35714;55.708;37.478;2023-05-07T08:58:35;1.42;;;0.60;;
49824;SDS011;35714;55.708;37.478;2023-05-07T09:01:02;1.70;;;0.50;;
49824;SDS011;35714;55.708;37.478;2023-05-07T09:03:31;1.73;;;0.50;;
49824;SDS011;35714;55.708;37.478;2023-05-07T09:05:58;1.48;;;0.47;;
49824;SDS011;35714;55.708;37.478;2023-05-07T09:08:26;2.20;;;0.80;;
49824;SDS011;35714;55.708;37.478;2023-05-07T09:10:54;2.00;;;0.52;;
49824;SDS011;35714;55.708;37.478;2023-05-07T09:13:21;3.22;;;0.90;;
49824;SDS011;35714;55.708;37.478;2023-05-07T09:15:47;3.95;;;0.80;;
49824;SDS011;35714;55.708;37.478;2023-05-07T09:18:14;2.58;;;0.55;;
49824;SDS011;35714;55.708;37.478;2023-05-07T09:20:40;3.15;;;0.70;;
49824;SDS011;35714;55.708;37.478;2023-05-07T09:23:08;1.65;;;0.70;;
49824;SDS011;35714;55.708;37.478;2023-05-07T09:25:35;1.98;;;0.70;;
49824;SDS011;35714;55.708;37.478;2023-05-07T09:28:08;2.35;;;0.50;;
49824;SDS011;35714;55.708;37.478;2023-05-07T09:30:36;4.45;;;0.70;;
49824;SDS011;35714;55.708;37.478;2023-05-07T09:33:04;1.63;;;0.70;;
49824;SDS011;35714;55.708;37.478;2023-05-07T09:35:32;1.55;;;0.57;;
49824;SDS011;35714;55.708;37.478;2023-05-07T09:38:04;2.00;;;0.68;;
49824;SDS011;35714;55.708;37.478;2023-05-07T09:40:32;1.38;;;0.55;;
49824;SDS011;35714;55.708;37.478;2023-05-07T09:43:09;4.22;;;0.75;;
49824;SDS011;35714;55.708;37.478;2023-05-07T09:45:38;1.05;;;0.50;;
49824;SDS011;35714;55.708;37.478;2023-05-07T09:48:05;3.00;;;1.00;;
49824;SDS011;35714;55.708;37.478;2023-05-07T09:50:36;1.98;;;0.65;;
49824;SDS011;35714;55.708;37.478;2023-05-07T09:53:12;3.17;;;0.75;;
49824;SDS011;35714;55.708;37.478;2023-05-07T09:55:40;3.25;;;0.90;;
49824;SDS011;35714;55.708;37.478;2023-05-07T09:58:07;3.95;;;0.77;;
49824;SDS011;35714;55.708;37.478;2023-05-07T10:00:34;2.42;;;0.82;;
49824;SDS011;35714;55.708;37.478;2023-05-07T10:03:08;1.90;;;0.80;;
49824;SDS011;35714;55.708;37.478;2023-05-07T10:05:54;1.58;;;0.60;;
49824;SDS011;35714;55.708;37.478;2023-05-07T10:08:22;2.08;;;0.70;;
49824;SDS011;35714;55.708;37.478;2023-05-07T10:10:51;2.13;;;1.17;;
49824;SDS011;35714;55.708;37.478;2023-05-07T10:13:21;2.15;;;0.77;;
49824;SDS011;35714;55.708;37.478;2023-05-07T10:15:50;3.20;;;0.70;;
49824;SDS011;35714;55.708;37.478;2023-05-07T10:18:18;3.03;;;0.75;;
49824;SDS011;35714;55.708;37.478;2023-05-07T10:20:49;3.35;;;0.80;;
49824;SDS011;35714;55.708;37.478;2023-05-07T10:23:20;4.03;;;0.80;;
49824;SDS011;35714;55.708;37.478;2023-05-07T10:25:50;2.00;;;0.60;;
49824;SDS011;35714;55.708;37.478;2023-05-07T10:28:20;2.35;;;0.57;;
49824;SDS011;35714;55.708;37.478;2023-05-07T10:33:47;3.85;;;0.75;;
49824;SDS011;35714;55.708;37.478;2023-05-07T10:36:18;1.13;;;0.40;;
49824;SDS011;35714;55.708;37.478;2023-05-07T10:38:45;1.63;;;0.50;;
49824;SDS011;35714;55.708;37.478;2023-05-07T10:41:12;4.05;;;0.60;;
49824;SDS011;35714;55.708;37.478;2023-05-07T10:43:41;2.20;;;0.57;;
49824;SDS011;35714;55.708;37.478;2023-05-07T10:46:14;2.90;;;0.63;;
49824;SDS011;35714;55.708;37.478;2023-05-07T10:51:26;2.30;;;0.75;;
49824;SDS011;35714;55.708;37.478;2023-05-07T10:56:39;3.08;;;0.93;;
49824;SDS011;35714;55.708;37.478;2023-05-07T11:01:56;2.78;;;0.90;;
49824;SDS011;35714;55.708;37.478;2023-05-07T11:04:40;1.38;;;0.60;;
49824;SDS011;35714;55.708;37.478;2023-05-07T11:07:25;2.20;;;0.70;;
49824;SDS011;35714;55.708;37.478;2023-05-07T11:10:03;1.40;;;0.60;;
49824;SDS011;35714;55.708;37.478;2023-05-07T11:12:56;2.13;;;0.70;;
49824;SDS011;35714;55.708;37.478;2023-05-07T11:15:33;1.98;;;0.73;;
49824;SDS011;35714;55.708;37.478;2023-05-07T11:18:03;2.60;;;0.93;;
49824;SDS011;35714;55.708;37.478;2023-05-07T11:20:45;2.17;;;0.80;;
49824;SDS011;35714;55.708;37.478;2023-05-07T11:26:08;2.00;;;0.55;;
49824;SDS011;35714;55.708;37.478;2023-05-07T11:28:36;3.40;;;0.80;;
49824;SDS011;35714;55.708;37.478;2023-05-07T11:31:04;3.00;;;0.90;;
49824;SDS011;35714;55.708;37.478;2023-05-07T11:33:30;2.80;;;0.95;;
49824;SDS011;35714;55.708;37.478;2023-05-07T11:35:59;1.90;;;0.70;;
49824;SDS011;35714;55.708;37.478;2023-05-07T11:38:34;3.20;;;1.00;;
49824;SDS011;35714;55.708;37.478;2023-05-07T11:41:01;2.80;;;1.10;;
49824;SDS011;35714;55.708;37.478;2023-05-07T11:43:27;3.70;;;1.25;;
49824;SDS011;35714;55.708;37.478;2023-05-07T11:45:53;3.08;;;1.23;;
49824;SDS011;35714;55.708;37.478;2023-05-07T11:48:20;2.17;;;0.80;;
49824;SDS011;35714;55.708;37.478;2023-05-07T11:50:51;2.55;;;0.90;;
49824;SDS011;35714;55.708;37.478;2023-05-07T11:53:18;2.78;;;1.10;;
49824;SDS011;35714;55.708;37.478;2023-05-07T11:55:45;3.67;;;0.85;;
49824;SDS011;35714;55.708;37.478;2023-05-07T11:58:12;3.92;;;0.90;;
49824;SDS011;35714;55.708;37.478;2023-05-07T12:00:48;1.92;;;0.80;;
49824;SDS011;35714;55.708;37.478;2023-05-07T12:03:17;1.42;;;0.60;;
49824;SDS011;35714;55.708;37.478;2023-05-07T12:05:45;2.78;;;0.75;;
49824;SDS011;35714;55.708;37.478;2023-05-07T12:08:15;2.15;;;0.80;;
49824;SDS011;35714;55.708;37.478;2023-05-07T12:10:45;3.58;;;0.98;;
49824;SDS011;35714;55.708;37.478;2023-05-07T12:13:16;2.72;;;0.75;;
49824;SDS011;35714;55.708;37.478;2023-05-07T12:15:43;1.95;;;0.75;;
49824;SDS011;35714;55.708;37.478;2023-05-07T12:18:09;2.67;;;0.90;;
49824;SDS011;35714;55.708;37.478;2023-05-07T12:20:36;1.83;;;0.85;;
49824;SDS011;35714;55.708;37.478;2023-05-07T12:23:02;3.60;;;0.80;;
49824;SDS011;35714;55.708;37.478;2023-05-07T12:25:31;3.80;;;0.90;;
49824;SDS011;35714;55.708;37.478;2023-05-07T12:28:01;3.03;;;1.10;;
49824;SDS011;35714;55.708;37.478;2023-05-07T12:30:39;2.03;;;0.88;;
49824;SDS011;35714;55.708;37.478;2023-05-07T12:33:05;3.88;;;0.75;;
49824;SDS011;35714;55.708;37.478;2023-05-07T12:35:32;2.90;;;0.98;;
49824;SDS011;35714;55.708;37.478;2023-05-07T12:38:02;2.78;;;0.93;;
49824;SDS011;35714;55.708;37.478;2023-05-07T12:40:36;3.50;;;1.00;;
49824;SDS011;35714;55.708;37.478;2023-05-07T12:43:03;5.15;;;1.00;;
49824;SDS011;35714;55.708;37.478;2023-05-07T12:45:29;3.00;;;0.90;;
49824;SDS011;35714;55.708;37.478;2023-05-07T12:47:55;2.20;;;0.80;;
49824;SDS011;35714;55.708;37.478;2023-05-07T12:50:22;2.88;;;1.02;;
49824;SDS011;35714;55.708;37.478;2023-05-07T12:52:48;3.17;;;1.20;;
49824;SDS011;35714;55.708;37.478;2023-05-07T12:55:15;2.20;;;0.77;;
49824;SDS011;35714;55.708;37.478;2023-05-07T12:57:42;3.10;;;1.10;;
49824;SDS011;35714;55.708;37.478;2023-05-07T13:00:11;2.33;;;0.68;;
49824;SDS011;35714;55.708;37.478;2023-05-07T13:02:37;1.50;;;0.70;;
49824;SDS011;35714;55.708;37.478;2023-05-07T13:05:04;2.80;;;0.88;;
49824;SDS011;35714;55.708;37.478;2023-05-07T13:07:31;4.45;;;1.45;;
49824;SDS011;35714;55.708;37.478;2023-05-07T13:09:56;2.92;;;1.02;;
49824;SDS011;35714;55.708;37.478;2023-05-07T13:12:22;2.17;;;0.80;;
49824;SDS011;35714;55.708;37.478;2023-05-07T13:14:47;4.15;;;1.00;;
49824;SDS011;35714;55.708;37.478;2023-05-07T13:17:13;3.78;;;1.10;;
49824;SDS011;35714;55.708;37.478;2023-05-07T13:19:39;2.78;;;1.00;;
49824;SDS011;35714;55.708;37.478;2023-05-07T13:22:04;2.55;;;0.98;;
49824;SDS011;35714;55.708;37.478;2023-05-07T13:24:30;2.83;;;0.80;;
49824;SDS011;35714;55.708;37.478;2023-05-07T13:26:56;2.60;;;0.68;;
49824;SDS011;35714;55.708;37.478;2023-05-07T13:29:21;3.08;;;0.88;;
49824;SDS011;35714;55.708;37.478;2023-05-07T13:31:54;2.50;;;1.08;;
49824;SDS011;35714;55.708;37.478;2023-05-07T13:34:20;7.00;;;1.00;;
49824;SDS011;35714;55.708;37.478;2023-05-07T13:36:46;3.70;;;0.80;;
49824;SDS011;35714;55.708;37.478;2023-05-07T13:39:11;2.97;;;1.05;;
49824;SDS011;35714;55.708;37.478;2023-05-07T13:41:37;2.45;;;0.70;;
49824;SDS011;35714;55.708;37.478;2023-05-07T13:44:03;2.30;;;0.85;;
49824;SDS011;35714;55.708;37.478;2023-05-07T13:46:28;1.80;;;0.60;;
49824;SDS011;35714;55.708;37.478;2023-05-07T13:48:55;2.22;;;0.88;;
49824;SDS011;35714;55.708;37.478;2023-05-07T13:51:21;2.88;;;0.70;;
49824;SDS011;35714;55.708;37.478;2023-05-07T13:53:47;2.90;;;0.93;;
49824;SDS011;35714;55.708;37.478;2023-05-07T13:56:13;1.92;;;0.77;;
49824;SDS011;35714;55.708;37.478;2023-05-07T13:58:39;2.60;;;0.90;;
49824;SDS011;35714;55.708;37.478;2023-05-07T14:01:05;8.77;;;0.98;;
49824;SDS011;35714;55.708;37.478;2023-05-07T14:03:31;4.28;;;0.70;;
49824;SDS011;35714;55.708;37.478;2023-05-07T14:05:59;2.83;;;0.90;;
49824;SDS011;35714;55.708;37.478;2023-05-07T14:08:26;1.83;;;0.73;;
49824;SDS011;35714;55.708;37.478;2023-05-07T14:10:52;2.45;;;1.00;;
49824;SDS011;35714;55.708;37.478;2023-05-07T14:13:19;2.67;;;1.00;;
49824;SDS011;35714;55.708;37.478;2023-05-07T14:15:45;2.95;;;1.00;;
49824;SDS011;35714;55.708;37.478;2023-05-07T14:18:15;2.53;;;0.82;;
49824;SDS011;35714;55.708;37.478;2023-05-07T14:20:41;2.83;;;0.80;;
49824;SDS011;35714;55.708;37.478;2023-05-07T14:23:11;4.20;;;0.93;;
49824;SDS011;35714;55.708;37.478;2023-05-07T14:25:37;3.97;;;0.80;;
49824;SDS011;35714;55.708;37.478;2023-05-07T14:28:03;3.25;;;0.95;;
49824;SDS011;35714;55.708;37.478;2023-05-07T14:30:28;2.78;;;0.90;;
49824;SDS011;35714;55.708;37.478;2023-05-07T14:32:54;3.13;;;1.10;;
49824;SDS011;35714;55.708;37.478;2023-05-07T14:35:20;4.93;;;1.17;;
49824;SDS011;35714;55.708;37.478;2023-05-07T14:37:45;4.70;;;0.90;;
49824;SDS011;35714;55.708;37.478;2023-05-07T14:40:11;2.58;;;1.05;;
49824;SDS011;35714;55.708;37.478;2023-05-07T14:42:37;2.53;;;1.05;;
49824;SDS011;35714;55.708;37.478;2023-05-07T14:45:03;2.22;;;0.90;;
49824;SDS011;35714;55.708;37.478;2023-05-07T14:47:31;9.52;;;1.10;;
49824;SDS011;35714;55.708;37.478;2023-05-07T14:49:57;6.30;;;1.23;;